Google Maps JavaScript API Example
Pilot Flight Report # 94267 Submitted by : AST204 on 2020-07-30
Date: 2020-07-30Aircraft: Boeing 747-400
Flight No.: AST0763Distance (Nm): 1600.43
Departure: KORD - Chicago-O'Hare InternationalDestination: KSFO - San Francisco Intl
 TimeFuelWeightSpeeds  
Out (Taxi)2006Z365797 lbs831772 lbs Flight RulesIFR
Off (Takeoff)2017Z 826418 lbs190 ktsFlight Level35000
On (Landing)2346Z 721311 lbs143 ktsVSTD-285 ft/min
In (Ramp)2352Z253371 lbs719326 lbs ZFW465930 lbs
Flight3.50  -  3:29105091 lbs  Pax0
Block3.77  -  3:46112426 lbs  Cargo0
Departure WeatherKORD 292000Z 30410KT 32SM BKN051 OVC078 32/23 A299
Destination WeatherKSFO 292352Z 27411KT 30SM BKN032 22/13 A2992
Flight Comments